Time;durP1;ratioP1;P1;durP2;ratioP2;P2;SDS_P1;SDS_P2;PMS_P1;PMS_P2;Temp;Humidity;BMP_temperature;BMP_pressure;BME280_temperature;BME280_humidity;BME280_pressure;Samples;Min_cycle;Max_cycle;Signal;HPM_P1;HPM_P2
2022/08/20 00:00:13;;;;;;;5.25;2.10;;;21.30;99.90;;;;;;5033557;28;20212;-58
2022/08/20 00:02:41;;;;;;;2.45;2.20;;;21.30;99.90;;;;;;5033637;28;20202;-58
2022/08/20 00:05:10;;;;;;;4.18;2.00;;;21.30;99.90;;;;;;5033118;28;20226;-58
2022/08/20 00:07:37;;;;;;;2.47;1.50;;;21.30;99.90;;;;;;5033107;28;20238;-58
2022/08/20 00:10:06;;;;;;;2.13;1.80;;;21.40;99.90;;;;;;5033413;28;20213;-58
2022/08/20 00:12:33;;;;;;;4.63;1.60;;;21.40;99.90;;;;;;5033671;28;20305;-58
2022/08/20 00:15:00;;;;;;;5.53;1.90;;;21.50;99.90;;;;;;5033397;28;20248;-58
2022/08/20 00:17:30;;;;;;;3.05;1.80;;;21.50;99.90;;;;;;5033119;28;20226;-58
2022/08/20 00:19:57;;;;;;;2.03;1.60;;;21.50;99.90;;;;;;5033178;28;20210;-58
2022/08/20 00:22:27;;;;;;;2.42;1.80;;;21.50;99.90;;;;;;5033269;28;20210;-58
2022/08/20 00:24:53;;;;;;;4.50;1.88;;;21.40;99.90;;;;;;5033256;28;20321;-58
2022/08/20 00:27:20;;;;;;;2.17;1.67;;;21.20;99.90;;;;;;5033482;28;20226;-58
2022/08/20 00:29:47;;;;;;;2.45;1.90;;;21.20;99.90;;;;;;5032936;28;20206;-58
2022/08/20 00:32:14;;;;;;;2.67;1.67;;;21.00;99.90;;;;;;5033099;28;20206;-58
2022/08/20 00:34:41;;;;;;;6.25;1.83;;;20.90;99.90;;;;;;5033039;28;20205;-58
2022/08/20 00:37:07;;;;;;;4.32;2.00;;;20.90;99.90;;;;;;5032928;28;20600;-61
2022/08/20 00:39:36;;;;;;;3.75;1.80;;;20.80;99.90;;;;;;5032453;28;20242;-58
2022/08/20 00:42:03;;;;;;;2.78;1.48;;;20.70;99.90;;;;;;5032790;28;20214;-58
2022/08/20 00:44:30;;;;;;;2.90;2.35;;;20.60;99.90;;;;;;5032642;28;20716;-58
2022/08/20 00:46:57;;;;;;;2.05;1.85;;;20.60;99.90;;;;;;5032860;28;20730;-58
2022/08/20 00:49:27;;;;;;;3.20;1.70;;;20.50;99.90;;;;;;5032577;28;20209;-59
2022/08/20 00:51:57;;;;;;;2.60;1.60;;;20.40;99.90;;;;;;5032551;28;20669;-59
2022/08/20 00:54:29;;;;;;;2.15;1.80;;;20.40;99.90;;;;;;5032629;28;20206;-59
2022/08/20 00:57:01;;;;;;;2.17;1.73;;;20.30;99.90;;;;;;5032597;28;20698;-59
2022/08/20 00:59:32;;;;;;;1.60;1.50;;;20.30;99.90;;;;;;5032405;28;20634;-59
2022/08/20 01:02:01;;;;;;;1.95;1.60;;;20.20;99.90;;;;;;5032313;28;20744;-58
2022/08/20 01:04:34;;;;;;;2.25;1.80;;;20.20;99.90;;;;;;5032334;28;20650;-58
2022/08/20 01:07:01;;;;;;;3.03;1.75;;;20.20;99.90;;;;;;5032304;28;20234;-58
2022/08/20 01:09:28;;;;;;;2.92;1.85;;;20.10;99.90;;;;;;5032105;28;20206;-58
2022/08/20 01:11:56;;;;;;;2.45;2.00;;;20.00;99.90;;;;;;5032254;28;20621;-59
2022/08/20 01:14:27;;;;;;;4.00;2.33;;;19.90;99.90;;;;;;5032363;28;20205;-59
2022/08/20 01:17:00;;;;;;;2.40;2.20;;;19.90;99.90;;;;;;5032160;28;20329;-59
2022/08/20 01:19:30;;;;;;;2.10;1.85;;;19.90;99.90;;;;;;5031886;28;20767;-59
2022/08/20 01:21:58;;;;;;;3.08;1.98;;;19.80;99.90;;;;;;5032187;28;20256;-60
2022/08/20 01:24:31;;;;;;;2.35;2.15;;;19.90;99.90;;;;;;5031935;28;20669;-59
2022/08/20 01:27:02;;;;;;;3.47;2.00;;;19.90;99.90;;;;;;5032211;28;20284;-59
2022/08/20 01:29:34;;;;;;;2.97;1.88;;;20.00;99.90;;;;;;5032075;28;20206;-59
2022/08/20 01:32:01;;;;;;;2.20;1.77;;;20.10;99.90;;;;;;5032107;28;20203;-59
2022/08/20 01:34:29;;;;;;;2.45;2.20;;;20.20;99.90;;;;;;5031313;28;20670;-59
2022/08/20 01:36:57;;;;;;;2.75;2.17;;;20.20;99.90;;;;;;5032537;28;20697;-59
2022/08/20 01:39:28;;;;;;;3.70;2.22;;;20.20;99.90;;;;;;5032496;28;20206;-59
2022/08/20 01:42:07;;;;;;;3.95;2.10;;;20.20;99.90;;;;;;5032651;28;20234;-59
2022/08/20 01:44:36;;;;;;;2.00;1.70;;;20.20;99.90;;;;;;5032122;28;20322;-59
2022/08/20 01:47:14;;;;;;;5.28;2.20;;;20.20;99.90;;;;;;5031787;28;20661;-59
2022/08/20 01:49:43;;;;;;;3.42;1.80;;;20.30;99.90;;;;;;5031963;28;20268;-59
2022/08/20 01:52:17;;;;;;;2.13;1.83;;;20.30;99.90;;;;;;5032230;28;20237;-59
2022/08/20 01:54:45;;;;;;;4.97;2.10;;;20.30;99.90;;;;;;5031767;28;20600;-59
2022/08/20 01:57:15;;;;;;;3.55;2.30;;;20.30;99.90;;;;;;5031728;28;20226;-59
2022/08/20 01:59:43;;;;;;;2.40;2.20;;;20.30;99.90;;;;;;5031493;28;20685;-59
2022/08/20 02:02:11;;;;;;;2.22;1.88;;;20.30;99.90;;;;;;5031669;28;20210;-59
2022/08/20 02:04:39;;;;;;;2.30;2.10;;;20.30;99.90;;;;;;5031751;28;20233;-59
2022/08/20 02:07:08;;;;;;;5.47;2.13;;;20.30;99.90;;;;;;5031501;28;20245;-59
2022/08/20 02:09:36;;;;;;;2.30;2.10;;;20.30;99.90;;;;;;5031446;28;20697;-60
2022/08/20 02:12:05;;;;;;;2.63;2.00;;;20.40;99.90;;;;;;5031557;28;20568;-59
2022/08/20 02:14:35;;;;;;;2.55;2.10;;;20.40;99.90;;;;;;5031687;28;20666;-59
2022/08/20 02:17:02;;;;;;;3.67;2.20;;;20.40;99.90;;;;;;5031612;28;20222;-58
2022/08/20 02:19:33;;;;;;;3.45;2.22;;;20.40;99.90;;;;;;5031499;28;20206;-59
2022/08/20 02:22:05;;;;;;;3.05;1.98;;;20.40;99.90;;;;;;5031731;28;20404;-59
2022/08/20 02:24:31;;;;;;;3.75;2.00;;;20.50;99.90;;;;;;5031719;28;20269;-59
2022/08/20 02:26:58;;;;;;;4.32;1.98;;;20.50;99.90;;;;;;5031437;28;20230;-59
2022/08/20 02:29:25;;;;;;;2.28;1.95;;;20.50;99.90;;;;;;5031374;28;20209;-59
2022/08/20 02:31:53;;;;;;;2.17;1.90;;;20.50;99.90;;;;;;5031773;28;20209;-59
2022/08/20 02:34:20;;;;;;;3.22;1.88;;;20.50;99.90;;;;;;5031381;28;20240;-60
2022/08/20 02:36:48;;;;;;;2.10;1.90;;;20.60;99.90;;;;;;5031464;28;20643;-59
2022/08/20 02:39:15;;;;;;;3.40;2.08;;;20.50;99.90;;;;;;5031223;28;20264;-59
2022/08/20 02:41:42;;;;;;;2.80;2.00;;;20.50;99.90;;;;;;5031230;28;20211;-59
2022/08/20 02:44:09;;;;;;;2.70;2.03;;;20.50;99.90;;;;;;5031338;28;20202;-59
2022/08/20 02:46:37;;;;;;;2.13;1.90;;;20.50;99.90;;;;;;5033518;28;20648;-59
2022/08/20 02:49:05;;;;;;;3.40;2.15;;;20.40;99.90;;;;;;5034722;28;20297;-59
2022/08/20 02:51:32;;;;;;;2.63;2.20;;;20.40;99.90;;;;;;5034809;28;20210;-57
2022/08/20 02:53:59;;;;;;;2.85;2.47;;;20.40;99.90;;;;;;5034784;28;20260;-57
2022/08/20 02:56:26;;;;;;;2.90;2.10;;;20.30;99.90;;;;;;5034834;28;20226;-58
2022/08/20 02:58:53;;;;;;;3.60;2.00;;;20.30;99.90;;;;;;5034545;28;20206;-58
2022/08/20 03:01:20;;;;;;;2.30;1.80;;;20.30;99.90;;;;;;5034662;28;20209;-60
2022/08/20 03:03:47;;;;;;;2.97;2.00;;;20.20;99.90;;;;;;5034533;28;20210;-58
2022/08/20 03:06:15;;;;;;;2.55;1.58;;;20.30;99.90;;;;;;5034266;28;20238;-58
2022/08/20 03:08:42;;;;;;;3.35;1.70;;;20.20;99.90;;;;;;5034176;28;20289;-58
2022/08/20 03:11:09;;;;;;;4.07;1.92;;;20.20;99.90;;;;;;5034677;28;20331;-58
2022/08/20 03:13:36;;;;;;;2.03;1.70;;;20.20;99.90;;;;;;5034550;28;20206;-57
2022/08/20 03:16:05;;;;;;;2.22;1.48;;;20.10;99.90;;;;;;5034292;28;20241;-57
2022/08/20 03:18:35;;;;;;;1.75;1.60;;;20.10;99.90;;;;;;5034645;28;20206;-57
2022/08/20 03:21:02;;;;;;;2.13;1.77;;;20.00;99.90;;;;;;5034185;28;20678;-58
2022/08/20 03:23:30;;;;;;;1.95;1.50;;;20.00;99.90;;;;;;5035065;28;20213;-57
2022/08/20 03:25:57;;;;;;;1.58;1.48;;;20.00;99.90;;;;;;5034401;28;20222;-58
2022/08/20 03:28:24;;;;;;;3.97;1.77;;;20.00;99.90;;;;;;5034159;28;20218;-57
2022/08/20 03:30:52;;;;;;;2.80;1.58;;;20.00;99.90;;;;;;5034517;28;20559;-57
2022/08/20 03:33:20;;;;;;;1.80;1.60;;;20.10;99.90;;;;;;5034332;28;20209;-57
2022/08/20 03:35:47;;;;;;;3.70;1.50;;;20.10;99.90;;;;;;5034149;28;20202;-58
2022/08/20 03:38:16;;;;;;;1.90;1.70;;;20.20;99.90;;;;;;5033833;28;20612;-57
2022/08/20 03:40:44;;;;;;;2.22;1.48;;;20.20;99.90;;;;;;5034186;28;20738;-58
2022/08/20 03:43:12;;;;;;;2.22;1.80;;;20.30;99.90;;;;;;5034106;28;20256;-58
2022/08/20 03:45:41;;;;;;;6.03;2.00;;;20.30;99.90;;;;;;5033654;28;20222;-58
2022/08/20 03:48:10;;;;;;;2.88;2.10;;;20.30;99.90;;;;;;5033557;28;20226;-58
2022/08/20 03:50:40;;;;;;;5.10;2.20;;;20.30;99.90;;;;;;5034032;28;20202;-58
2022/08/20 03:53:08;;;;;;;2.00;1.85;;;20.20;99.90;;;;;;5033878;28;20571;-58
2022/08/20 03:55:35;;;;;;;3.10;2.22;;;20.20;99.90;;;;;;5033770;28;20210;-58
2022/08/20 03:58:06;;;;;;;3.78;2.10;;;20.20;99.90;;;;;;5032505;28;20825;-58
2022/08/20 04:00:36;;;;;;;4.25;1.85;;;20.30;99.90;;;;;;5033631;28;20232;-58
2022/08/20 04:03:03;;;;;;;2.53;2.08;;;20.30;99.90;;;;;;5033676;28;20206;-58
2022/08/20 04:05:32;;;;;;;2.42;2.17;;;20.30;99.90;;;;;;5033270;28;20233;-58
2022/08/20 04:08:00;;;;;;;2.42;1.85;;;20.40;99.90;;;;;;5033632;28;20521;-59
2022/08/20 04:10:27;;;;;;;2.10;1.90;;;20.40;99.90;;;;;;5033486;28;20206;-61
2022/08/20 04:12:54;;;;;;;3.65;1.92;;;20.40;99.90;;;;;;5033282;28;20268;-59
2022/08/20 04:15:23;;;;;;;2.38;2.00;;;20.40;99.90;;;;;;5033108;28;20678;-58
2022/08/20 04:17:51;;;;;;;3.45;2.00;;;20.30;99.90;;;;;;5033492;28;20233;-58
2022/08/20 04:20:21;;;;;;;2.63;1.85;;;20.30;99.90;;;;;;5032986;28;20648;-59
2022/08/20 04:22:48;;;;;;;1.80;1.70;;;20.30;99.90;;;;;;5033620;28;20233;-58
2022/08/20 04:25:15;;;;;;;4.40;2.10;;;20.30;99.90;;;;;;5033085;28;20663;-59
2022/08/20 04:27:42;;;;;;;2.42;2.00;;;20.30;99.90;;;;;;5032894;28;20230;-59
2022/08/20 04:30:11;;;;;;;1.80;1.70;;;20.30;99.90;;;;;;5032911;28;20241;-59
2022/08/20 04:32:40;;;;;;;2.97;2.15;;;20.30;99.90;;;;;;5033043;28;20214;-59
2022/08/20 04:35:10;;;;;;;4.53;3.78;;;20.30;99.90;;;;;;5033801;28;20202;-57
2022/08/20 04:37:38;;;;;;;3.92;2.20;;;20.40;99.90;;;;;;5033194;28;20241;-58
2022/08/20 04:42:51;;;;;;;2.75;2.05;;;20.40;99.90;;;;;;5033120;28;20587;-59
2022/08/20 04:45:17;;;;;;;2.53;1.80;;;20.40;99.90;;;;;;5032928;28;20218;-58
2022/08/20 04:47:46;;;;;;;3.42;1.90;;;20.30;99.90;;;;;;5032776;28;20254;-58
2022/08/20 04:50:13;;;;;;;2.40;1.92;;;20.30;99.90;;;;;;5032676;28;20268;-58
2022/08/20 04:52:40;;;;;;;2.28;1.70;;;20.30;99.90;;;;;;5032740;28;20218;-58
2022/08/20 04:55:08;;;;;;;3.63;1.83;;;20.30;99.90;;;;;;5033184;28;20282;-59
2022/08/20 04:57:35;;;;;;;1.95;1.73;;;20.20;99.90;;;;;;5032684;28;20284;-59
2022/08/20 05:00:02;;;;;;;2.28;1.88;;;20.30;99.90;;;;;;5032426;28;20206;-59
2022/08/20 05:02:29;;;;;;;3.08;1.70;;;20.30;99.90;;;;;;5032481;28;20206;-59
2022/08/20 05:04:57;;;;;;;2.35;1.90;;;20.30;99.90;;;;;;5032422;28;20222;-59
2022/08/20 05:07:24;;;;;;;2.55;1.88;;;20.40;99.90;;;;;;5032469;28;20459;-59
2022/08/20 05:09:51;;;;;;;2.60;2.10;;;20.40;99.90;;;;;;5031127;28;20739;-59
2022/08/20 05:12:18;;;;;;;3.08;2.15;;;20.40;99.90;;;;;;5032466;28;20217;-59
2022/08/20 05:14:45;;;;;;;4.80;2.00;;;20.40;99.90;;;;;;5032464;28;20210;-59
2022/08/20 05:17:13;;;;;;;3.42;2.00;;;20.40;99.90;;;;;;5032264;28;20230;-59
2022/08/20 05:19:41;;;;;;;2.10;1.90;;;20.20;99.90;;;;;;5031782;28;20684;-59
2022/08/20 05:22:09;;;;;;;2.28;1.90;;;20.30;99.90;;;;;;5032059;28;20218;-59
2022/08/20 05:24:35;;;;;;;2.10;1.90;;;20.20;99.90;;;;;;5032251;28;20214;-59
2022/08/20 05:27:02;;;;;;;4.82;1.80;;;20.30;99.90;;;;;;5032126;28;20230;-59
2022/08/20 05:29:29;;;;;;;3.08;2.10;;;20.20;99.90;;;;;;5032007;28;20206;-58
2022/08/20 05:31:55;;;;;;;3.30;1.70;;;20.10;99.90;;;;;;5032005;28;20670;-59
2022/08/20 05:34:23;;;;;;;4.25;2.13;;;20.10;99.90;;;;;;5032112;28;20293;-59
2022/08/20 05:36:51;;;;;;;1.90;1.80;;;20.10;99.90;;;;;;5032095;28;20309;-61
2022/08/20 05:39:22;;;;;;;4.22;2.05;;;20.00;99.90;;;;;;5031736;28;20210;-59
2022/08/20 05:41:50;;;;;;;2.15;1.90;;;20.00;99.90;;;;;;5032221;28;20213;-59
2022/08/20 05:44:18;;;;;;;4.95;1.90;;;20.10;99.90;;;;;;5031992;28;20617;-59
2022/08/20 05:46:46;;;;;;;2.40;1.95;;;20.20;99.90;;;;;;5031784;28;20313;-59
2022/08/20 05:49:15;;;;;;;3.05;1.80;;;20.20;99.90;;;;;;5031829;28;20427;-59
2022/08/20 05:51:42;;;;;;;3.22;2.03;;;20.20;99.90;;;;;;5032072;28;20649;-59
2022/08/20 05:54:10;;;;;;;3.30;2.17;;;20.30;99.90;;;;;;5032109;28;20289;-59
2022/08/20 05:56:38;;;;;;;2.70;2.05;;;20.30;99.90;;;;;;5031547;28;20581;-59
2022/08/20 05:59:07;;;;;;;2.95;1.98;;;20.40;99.90;;;;;;5031580;28;20629;-59
2022/08/20 06:01:36;;;;;;;2.30;1.80;;;20.40;99.90;;;;;;5031613;28;20662;-58
2022/08/20 06:06:50;;;;;;;2.38;2.00;;;20.50;99.90;;;;;;5031614;28;20273;-60
2022/08/20 06:09:18;;;;;;;2.55;2.15;;;20.60;99.90;;;;;;5031767;28;20587;-60
2022/08/20 06:11:46;;;;;;;2.65;1.95;;;20.60;99.90;;;;;;5031605;28;20206;-60
2022/08/20 06:14:15;;;;;;;3.20;2.33;;;20.70;99.90;;;;;;5031736;28;20282;-59
2022/08/20 06:16:42;;;;;;;2.42;2.10;;;20.80;99.90;;;;;;5031705;28;20766;-60
2022/08/20 06:19:09;;;;;;;2.30;2.00;;;20.90;99.90;;;;;;5031352;28;20681;-60
2022/08/20 06:21:35;;;;;;;2.17;1.98;;;21.00;99.90;;;;;;5034428;28;20210;-60
2022/08/20 06:24:02;;;;;;;5.60;2.15;;;21.10;99.90;;;;;;5035371;28;20206;-59
2022/08/20 06:26:30;;;;;;;4.28;2.08;;;21.20;99.90;;;;;;5034931;28;20237;-61
2022/08/20 06:28:59;;;;;;;2.72;2.20;;;21.30;99.90;;;;;;5035140;28;20297;-60
2022/08/20 06:31:26;;;;;;;2.38;2.13;;;21.50;99.90;;;;;;5035385;28;20206;-62
2022/08/20 06:33:52;;;;;;;3.95;2.15;;;21.60;99.90;;;;;;5035460;28;20234;-62
2022/08/20 06:36:19;;;;;;;10.18;7.78;;;21.80;99.90;;;;;;5035132;28;20282;-65
2022/08/20 06:38:46;;;;;;;2.97;2.63;;;21.90;99.90;;;;;;5034855;28;20214;-62
2022/08/20 06:41:13;;;;;;;5.70;4.07;;;22.10;99.90;;;;;;5035227;28;20205;-64
2022/08/20 06:43:40;;;;;;;16.23;7.72;;;22.30;99.90;;;;;;5035046;28;20294;-64
2022/08/20 06:46:08;;;;;;;4.40;2.40;;;22.50;99.90;;;;;;5034834;28;20308;-59
2022/08/20 06:48:35;;;;;;;3.67;2.05;;;22.70;99.90;;;;;;5034964;28;20206;-59
2022/08/20 06:51:02;;;;;;;3.05;2.33;;;22.70;99.90;;;;;;5034923;28;20206;-59
2022/08/20 06:53:28;;;;;;;4.32;2.55;;;22.70;99.90;;;;;;5034800;28;20276;-58
2022/08/20 06:55:56;;;;;;;2.58;1.88;;;22.60;99.90;;;;;;5034793;28;20491;-62
2022/08/20 06:58:23;;;;;;;3.28;2.13;;;22.60;99.90;;;;;;5034838;28;20208;-65
2022/08/20 07:00:50;;;;;;;4.65;2.22;;;22.50;99.90;;;;;;5034789;28;20202;-61
2022/08/20 07:03:19;;;;;;;4.00;2.40;;;22.60;99.90;;;;;;5035014;28;20654;-62
2022/08/20 07:05:45;;;;;;;5.85;3.08;;;22.60;99.90;;;;;;5034515;28;20226;-60
2022/08/20 07:08:15;;;;;;;3.90;2.70;;;22.80;99.90;;;;;;5034323;28;20240;-60
2022/08/20 07:10:42;;;;;;;4.32;2.60;;;22.90;99.90;;;;;;5034320;28;20237;-62
2022/08/20 07:13:09;;;;;;;3.53;2.90;;;23.10;99.90;;;;;;5034774;28;20294;-61
2022/08/20 07:15:35;;;;;;;4.22;3.35;;;23.20;99.90;;;;;;5034617;28;20206;-61
2022/08/20 07:18:05;;;;;;;5.68;3.53;;;23.30;99.90;;;;;;5034587;28;20638;-61
2022/08/20 07:20:37;;;;;;;3.35;2.90;;;23.40;99.90;;;;;;5034170;28;20202;-61
2022/08/20 07:23:03;;;;;;;3.55;3.25;;;23.60;99.90;;;;;;5034392;28;20245;-63
2022/08/20 07:25:32;;;;;;;3.78;3.28;;;23.70;99.90;;;;;;5019357;28;20435;-64
2022/08/20 07:28:03;;;;;;;4.00;3.42;;;23.70;99.90;;;;;;5017372;28;20276;-65
2022/08/20 07:33:15;;;;;;;6.50;4.20;;;23.90;99.90;;;;;;5031980;28;20256;-66
2022/08/20 07:35:47;;;;;;;4.57;3.00;;;24.00;99.90;;;;;;5019370;28;20221;-60
2022/08/20 07:38:16;;;;;;;4.13;2.90;;;23.90;99.90;;;;;;5023858;28;20686;-62
2022/08/20 07:40:43;;;;;;;3.78;3.08;;;23.70;99.90;;;;;;5033081;28;20206;-61
2022/08/20 07:43:10;;;;;;;5.18;3.65;;;23.60;99.90;;;;;;5033066;28;20210;-62
2022/08/20 07:45:37;;;;;;;3.65;2.80;;;23.50;99.90;;;;;;5032951;28;20298;-61
2022/08/20 07:48:08;;;;;;;3.72;3.38;;;23.50;99.90;;;;;;5032816;28;20226;-63
2022/08/20 07:50:35;;;;;;;3.33;2.83;;;23.60;99.90;;;;;;5032902;28;20206;-63
2022/08/20 07:53:03;;;;;;;5.20;3.45;;;23.60;99.90;;;;;;5032507;28;20672;-62
2022/08/20 07:55:30;;;;;;;4.65;3.17;;;23.70;99.90;;;;;;5032734;28;20206;-63
2022/08/20 07:58:05;;;;;;;4.10;3.17;;;23.80;99.90;;;;;;5032651;28;20240;-64
2022/08/20 08:00:32;;;;;;;5.00;3.40;;;23.80;99.90;;;;;;5032542;28;20209;-63
2022/08/20 08:02:58;;;;;;;5.47;3.33;;;23.90;99.90;;;;;;5032683;28;20213;-64
2022/08/20 08:05:26;;;;;;;5.10;3.20;;;24.00;99.90;;;;;;5032551;28;20205;-64
2022/08/20 08:07:53;;;;;;;6.00;3.45;;;24.20;99.90;;;;;;5032148;28;20298;-62
2022/08/20 08:10:23;;;;;;;4.35;3.42;;;24.40;99.90;;;;;;5032117;28;20245;-63
2022/08/20 08:12:53;;;;;;;4.50;3.15;;;24.70;99.90;;;;;;5031973;28;20206;-61
2022/08/20 08:15:23;;;;;;;5.22;3.33;;;25.00;99.90;;;;;;5032565;28;20210;-62
2022/08/20 08:17:52;;;;;;;5.72;3.38;;;25.30;99.90;;;;;;5032284;28;20230;-65
2022/08/20 08:20:21;;;;;;;3.83;3.35;;;25.60;99.90;;;;;;5032993;28;20218;-60
2022/08/20 08:22:48;;;;;;;4.40;2.97;;;25.80;99.90;;;;;;5033127;28;20210;-60
2022/08/20 08:25:16;;;;;;;5.45;3.30;;;25.90;99.90;;;;;;5033134;28;20210;-60
2022/08/20 08:27:47;;;;;;;4.00;2.95;;;26.20;99.90;;;;;;5033652;28;20280;-60
2022/08/20 08:30:15;;;;;;;5.80;3.28;;;26.30;99.90;;;;;;5034243;28;20207;-60
2022/08/20 08:35:23;;;;;;;4.22;3.60;;;26.80;99.90;;;;;;5033364;28;20285;-60
2022/08/20 08:37:50;;;;;;;3.83;3.05;;;27.30;99.90;;;;;;5033069;28;20226;-60
2022/08/20 08:40:17;;;;;;;3.75;3.28;;;27.80;99.90;;;;;;5033093;28;20900;-60
2022/08/20 08:42:56;;;;;;;3.55;3.00;;;28.20;99.90;;;;;;5032793;28;20210;-60
2022/08/20 08:45:25;;;;;;;4.07;3.38;;;28.50;99.90;;;;;;5032667;28;20205;-60
2022/08/20 08:47:53;;;;;;;4.10;3.22;;;28.80;99.90;;;;;;5032403;28;20597;-60
2022/08/20 08:50:23;;;;;;;4.10;3.55;;;28.80;99.90;;;;;;5032233;28;20203;-60
2022/08/20 08:52:52;;;;;;;5.75;3.25;;;28.70;99.90;;;;;;5033109;28;20508;-60
2022/08/20 08:55:22;;;;;;;3.40;3.10;;;28.90;99.90;;;;;;5032545;28;20298;-60
2022/08/20 08:57:53;;;;;;;4.07;3.08;;;29.10;99.90;;;;;;5032284;28;20713;-60
2022/08/20 09:00:22;;;;;;;3.70;3.30;;;29.30;99.90;;;;;;5032271;28;20272;-60
2022/08/20 09:02:59;;;;;;;6.18;3.05;;;29.60;99.90;;;;;;5032215;28;20210;-60
2022/08/20 09:05:31;;;;;;;4.13;3.20;;;29.80;99.90;;;;;;5032367;28;20206;-60
2022/08/20 09:08:02;;;;;;;3.78;3.25;;;29.90;99.90;;;;;;5032243;28;20316;-60
2022/08/20 09:10:29;;;;;;;3.63;3.20;;;29.90;99.90;;;;;;5032070;28;20297;-60
2022/08/20 09:12:57;;;;;;;3.72;3.40;;;30.00;99.90;;;;;;5032076;28;20623;-60
2022/08/20 09:15:23;;;;;;;6.45;3.25;;;29.90;99.90;;;;;;5032099;28;20272;-60
2022/08/20 09:17:50;;;;;;;6.13;3.17;;;29.80;99.90;;;;;;5032229;28;20233;-60
2022/08/20 09:20:18;;;;;;;4.15;2.60;;;29.70;99.90;;;;;;5032029;28;20218;-60
2022/08/20 09:22:44;;;;;;;4.35;3.00;;;29.80;99.90;;;;;;5034011;28;20234;-60
2022/08/20 09:25:11;;;;;;;3.00;2.70;;;30.00;99.90;;;;;;5032029;28;20252;-60
2022/08/20 09:27:38;;;;;;;6.28;2.90;;;30.20;99.90;;;;;;5031936;28;20234;-59
2022/08/20 09:30:07;;;;;;;4.80;2.97;;;30.50;99.90;;;;;;5031990;28;20217;-59
2022/08/20 09:32:34;;;;;;;3.35;2.97;;;30.70;99.90;;;;;;5032056;28;20213;-60
2022/08/20 09:35:00;;;;;;;4.75;2.50;;;31.00;99.90;;;;;;5031909;28;20237;-60
2022/08/20 09:37:30;;;;;;;5.20;2.75;;;31.10;99.90;;;;;;5031888;28;20235;-60
2022/08/20 09:39:57;;;;;;;3.15;2.20;;;30.70;99.90;;;;;;5031796;28;20210;-60
2022/08/20 09:42:26;;;;;;;3.78;2.30;;;30.00;99.90;;;;;;5032206;28;20214;-60
2022/08/20 09:44:53;;;;;;;3.05;2.40;;;29.00;99.90;;;;;;5032071;28;20261;-60
2022/08/20 09:47:21;;;;;;;2.80;2.50;;;28.30;99.90;;;;;;5032633;28;20234;-59
2022/08/20 09:49:49;;;;;;;3.95;2.70;;;27.60;99.90;;;;;;5031197;28;20646;-60
2022/08/20 09:52:20;;;;;;;3.00;2.60;;;27.10;99.90;;;;;;5031867;28;20244;-59
2022/08/20 09:54:47;;;;;;;4.72;3.15;;;26.80;99.90;;;;;;5031733;28;20214;-60
2022/08/20 09:57:15;;;;;;;4.28;2.88;;;26.60;99.90;;;;;;5035866;28;20636;-60
2022/08/20 09:59:42;;;;;;;2.80;2.45;;;26.40;99.90;;;;;;5035716;28;20210;-60
2022/08/20 10:02:09;;;;;;;3.30;2.67;;;26.20;99.90;;;;;;5035749;28;20681;-60
2022/08/20 10:04:37;;;;;;;3.33;2.47;;;26.20;99.90;;;;;;5035727;28;20240;-60
2022/08/20 10:07:07;;;;;;;3.05;2.70;;;26.50;99.90;;;;;;5060294;22;20234;-60
2022/08/20 10:09:34;;;;;;;3.50;2.72;;;26.60;99.90;;;;;;5029833;28;20209;-59
2022/08/20 10:12:01;;;;;;;4.90;2.40;;;26.50;99.90;;;;;;5038344;28;20218;-59
2022/08/20 10:14:28;;;;;;;4.63;3.83;;;26.50;99.90;;;;;;5037762;28;20206;-60
2022/08/20 10:16:56;;;;;;;3.90;2.65;;;26.80;99.90;;;;;;5036990;28;20594;-60
2022/08/20 10:19:22;;;;;;;3.30;2.60;;;26.90;99.90;;;;;;5036857;28;20674;-60
2022/08/20 10:21:52;;;;;;;4.57;2.50;;;27.00;99.90;;;;;;5036998;28;20210;-59
2022/08/20 10:24:19;;;;;;;6.68;3.03;;;27.20;99.90;;;;;;5036790;28;20214;-59
2022/08/20 10:26:46;;;;;;;3.13;2.83;;;27.20;99.90;;;;;;5036665;28;20313;-59
2022/08/20 10:29:13;;;;;;;5.25;3.03;;;26.90;99.90;;;;;;5036149;28;20214;-59
2022/08/20 10:31:40;;;;;;;3.20;2.90;;;26.50;99.90;;;;;;5036531;28;20297;-59
2022/08/20 10:34:07;;;;;;;4.30;3.58;;;26.30;99.90;;;;;;5036200;28;20210;-59
2022/08/20 10:36:34;;;;;;;8.20;6.43;;;26.20;99.90;;;;;;5037688;28;20226;-60
2022/08/20 10:39:03;;;;;;;3.35;2.88;;;26.20;99.90;;;;;;5038289;28;20206;-60
2022/08/20 10:41:30;;;;;;;3.10;2.47;;;26.30;99.90;;;;;;5039027;28;20298;-60
2022/08/20 10:43:57;;;;;;;3.42;2.60;;;26.50;99.90;;;;;;5038751;28;20691;-60
2022/08/20 10:46:24;;;;;;;4.95;2.78;;;26.60;99.90;;;;;;5037808;28;20292;-59
2022/08/20 10:48:51;;;;;;;2.70;2.50;;;26.50;99.90;;;;;;5038445;28;20423;-60
2022/08/20 10:51:18;;;;;;;3.17;2.87;;;26.70;99.90;;;;;;5037626;28;20441;-59
2022/08/20 10:53:44;;;;;;;3.45;3.00;;;26.60;99.90;;;;;;5035324;28;20651;-56
2022/08/20 10:56:12;;;;;;;3.03;2.67;;;26.50;99.90;;;;;;5016836;28;20199;-59
2022/08/20 10:58:39;;;;;;;4.32;2.20;;;26.50;99.90;;;;;;5016336;28;20290;-59
2022/08/20 11:01:07;;;;;;;1.70;1.60;;;26.60;99.90;;;;;;5016215;28;20206;-58
2022/08/20 11:03:33;;;;;;;3.45;1.60;;;26.70;99.90;;;;;;5017235;28;20207;-64
2022/08/20 11:06:00;;;;;;;4.47;1.95;;;26.90;99.90;;;;;;5016946;28;20211;-64
2022/08/20 11:08:27;;;;;;;5.97;2.00;;;27.00;99.90;;;;;;5017149;28;20235;-62
2022/08/20 11:10:54;;;;;;;2.72;2.17;;;27.00;99.90;;;;;;5016733;28;20203;-58
2022/08/20 11:13:22;;;;;;;3.60;2.50;;;27.00;99.90;;;;;;5015827;28;20354;-58
2022/08/20 11:15:49;;;;;;;4.15;2.50;;;27.00;99.90;;;;;;5016217;28;20569;-60
2022/08/20 11:18:16;;;;;;;3.20;2.50;;;27.10;99.90;;;;;;5015687;28;20222;-57
2022/08/20 11:20:42;;;;;;;3.42;2.90;;;27.20;99.90;;;;;;5015901;28;20214;-58
2022/08/20 11:23:09;;;;;;;3.35;2.40;;;27.20;99.90;;;;;;5015470;28;20305;-58
2022/08/20 11:25:36;;;;;;;3.63;2.70;;;27.50;99.90;;;;;;5015046;28;20226;-58
2022/08/20 11:28:04;;;;;;;4.00;2.45;;;27.70;99.90;;;;;;5014800;28;20312;-58
2022/08/20 11:30:35;;;;;;;5.90;2.50;;;27.60;99.90;;;;;;5014139;28;20203;-57
2022/08/20 11:33:03;;;;;;;2.95;1.85;;;27.40;99.90;;;;;;5014304;28;20206;-58
2022/08/20 11:35:31;;;;;;;1.88;1.50;;;27.10;99.90;;;;;;5014708;28;20213;-58
2022/08/20 11:37:59;;;;;;;1.38;1.20;;;26.80;99.90;;;;;;5014564;28;20253;-57
2022/08/20 11:40:27;;;;;;;1.77;1.58;;;26.60;99.90;;;;;;5014193;28;20214;-57
2022/08/20 11:42:55;;;;;;;3.83;1.92;;;26.30;99.90;;;;;;5014431;28;20578;-58
2022/08/20 11:45:22;;;;;;;2.15;1.50;;;26.00;99.90;;;;;;5014295;28;20560;-58
2022/08/20 11:47:50;;;;;;;1.95;1.80;;;25.80;99.90;;;;;;5014388;28;20231;-58
2022/08/20 11:50:19;;;;;;;3.20;2.35;;;25.50;99.90;;;;;;5014233;28;20698;-58
2022/08/20 11:52:45;;;;;;;2.97;1.92;;;25.30;99.90;;;;;;5014537;28;20195;-57
2022/08/20 11:55:14;;;;;;;3.38;1.73;;;25.20;99.90;;;;;;5014575;28;20675;-57
2022/08/20 11:57:44;;;;;;;3.45;1.90;;;25.30;99.90;;;;;;5014233;28;20227;-58
2022/08/20 12:00:13;;;;;;;3.45;1.98;;;25.20;99.90;;;;;;5014154;28;20576;-57
2022/08/20 12:02:40;;;;;;;3.30;1.73;;;25.20;99.90;;;;;;5014852;28;20214;-57
2022/08/20 12:05:11;;;;;;;2.17;1.98;;;25.40;99.90;;;;;;5014322;28;20207;-57
2022/08/20 12:07:38;;;;;;;3.50;2.03;;;25.80;99.90;;;;;;5013772;28;20239;-58
2022/08/20 12:10:08;;;;;;;4.22;1.75;;;26.10;99.90;;;;;;5014236;28;20206;-58
2022/08/20 12:12:35;;;;;;;3.30;2.08;;;26.30;99.90;;;;;;5013908;28;20207;-58
2022/08/20 12:15:02;;;;;;;6.80;2.20;;;26.50;99.90;;;;;;5013924;28;20217;-57
2022/08/20 12:17:31;;;;;;;3.08;1.73;;;26.70;99.90;;;;;;5014296;28;20226;-58
2022/08/20 12:20:00;;;;;;;3.60;2.30;;;27.00;99.90;;;;;;5013254;28;20211;-58
2022/08/20 12:22:28;;;;;;;4.65;1.50;;;27.20;99.90;;;;;;5013936;28;20210;-58
2022/08/20 12:24:55;;;;;;;2.28;1.80;;;27.30;99.90;;;;;;5013778;28;20203;-57
2022/08/20 12:27:24;;;;;;;2.25;1.42;;;27.50;99.90;;;;;;5013728;28;20714;-56
2022/08/20 12:29:54;;;;;;;1.92;1.50;;;27.50;99.90;;;;;;5013038;28;20297;-57
2022/08/20 12:32:20;;;;;;;1.30;1.20;;;27.40;99.90;;;;;;5013698;28;20214;-58
2022/08/20 12:34:47;;;;;;;1.23;1.15;;;27.50;99.90;;;;;;5013336;28;20218;-57
2022/08/20 12:37:17;;;;;;;2.45;1.83;;;27.50;99.90;;;;;;5013348;28;20706;-57
2022/08/20 12:39:47;;;;;;;1.67;1.58;;;27.40;99.90;;;;;;5013478;28;20286;-58
2022/08/20 12:42:15;;;;;;;1.60;1.20;;;27.50;99.90;;;;;;5013236;28;20686;-57
2022/08/20 12:44:42;;;;;;;2.92;1.80;;;27.50;99.90;;;;;;5013422;28;20585;-57
2022/08/20 12:47:12;;;;;;;3.75;1.77;;;27.60;99.90;;;;;;5013412;28;20222;-57
2022/08/20 12:49:41;;;;;;;1.90;1.80;;;27.60;99.90;;;;;;5013413;28;20211;-58
2022/08/20 12:52:08;;;;;;;2.03;1.60;;;27.60;99.90;;;;;;5013385;28;20211;-58
2022/08/20 12:54:35;;;;;;;1.63;1.50;;;27.50;99.90;;;;;;5013389;28;20238;-57
2022/08/20 12:57:05;;;;;;;4.68;1.63;;;27.50;99.90;;;;;;5013544;28;20249;-59
2022/08/20 12:59:31;;;;;;;1.50;1.38;;;27.50;99.90;;;;;;5013246;28;20211;-58
2022/08/20 13:01:59;;;;;;;1.63;1.30;;;27.40;99.90;;;;;;5013430;28;20643;-59